EGAE/LDY METAR and TAF weather

Enter ICAO airport designator
Station Type Date Time Source
EGAE METAR 2018/04/26 15:20 UTC NOAA

EGAE 261520Z 29018KT 9999 FEW024 SCT038 12/04 Q1010


Station Type Date Time Source
EGAE Decoded METAR 2018/04/26 15:20 UTC NOAA

Eglinton / Londonderr, United Kingdom (EGAE) 55-03N 007-09W
Apr 26, 2018 - 11:20 AM EDT / 2018.04.26 1520 UTC
Wind: from the WNW (290 degrees) at 21 MPH (18 KT):0
Visibility: greater than 7 mile(s):0
Sky conditions: partly cloudy
Temperature: 53 F (12 C)
Dew Point: 39 F (4 C)
Relative Humidity: 57%
Pressure (altimeter): 29.83 in. Hg (1010 hPa)
ob: EGAE 261520Z 29018KT 9999 FEW024 SCT038 12/04 Q1010
cycle: 15

Station Type Date Time Source
EGAE TAF UTC NOAA

Error!


Example: see airport list